sensor_id;sensor_type;location;lat;lon;timestamp;pressure;altitude;pressure_sealevel;temperature;humidity
48555;BME280;34336;48.270;16.716;2023-04-24T00:02:10;109325.25;;;18.16;66.41
48555;BME280;34336;48.270;16.716;2023-04-24T00:04:37;109325.25;;;18.16;66.38
48555;BME280;34336;48.270;16.716;2023-04-24T00:07:06;109325.25;;;18.16;65.49
48555;BME280;34336;48.270;16.716;2023-04-24T00:09:33;109325.25;;;18.16;65.04
48555;BME280;34336;48.270;16.716;2023-04-24T00:12:00;109325.25;;;18.16;64.77
48555;BME280;34336;48.270;16.716;2023-04-24T00:14:30;109325.25;;;18.16;64.83
48555;BME280;34336;48.270;16.716;2023-04-24T00:16:57;109325.25;;;18.16;64.54
48555;BME280;34336;48.270;16.716;2023-04-24T00:19:23;109325.25;;;18.16;64.93
48555;BME280;34336;48.270;16.716;2023-04-24T00:21:50;109325.25;;;18.16;63.72
48555;BME280;34336;48.270;16.716;2023-04-24T00:24:17;109325.25;;;18.16;64.14
48555;BME280;34336;48.270;16.716;2023-04-24T00:26:44;109325.25;;;18.16;64.72
48555;BME280;34336;48.270;16.716;2023-04-24T00:29:11;109325.25;;;18.16;63.86
48555;BME280;34336;48.270;16.716;2023-04-24T00:31:37;109325.25;;;18.16;64.03
48555;BME280;34336;48.270;16.716;2023-04-24T00:34:04;109325.25;;;18.16;63.36
48555;BME280;34336;48.270;16.716;2023-04-24T00:36:31;109325.25;;;18.16;62.76
48555;BME280;34336;48.270;16.716;2023-04-24T00:38:58;109325.25;;;18.16;63.06
48555;BME280;34336;48.270;16.716;2023-04-24T00:41:25;109325.25;;;18.16;63.04
48555;BME280;34336;48.270;16.716;2023-04-24T00:43:52;109325.25;;;18.16;62.66
48555;BME280;34336;48.270;16.716;2023-04-24T00:46:19;109325.25;;;18.16;62.79
48555;BME280;34336;48.270;16.716;2023-04-24T00:48:45;109325.25;;;18.16;62.94
48555;BME280;34336;48.270;16.716;2023-04-24T00:51:12;109325.25;;;18.16;62.72
48555;BME280;34336;48.270;16.716;2023-04-24T00:53:39;109325.25;;;18.16;62.21
48555;BME280;34336;48.270;16.716;2023-04-24T00:56:06;109325.25;;;18.16;62.66
48555;BME280;34336;48.270;16.716;2023-04-24T00:58:33;109325.25;;;18.16;62.71
48555;BME280;34336;48.270;16.716;2023-04-24T01:00:59;109325.25;;;18.16;62.25
48555;BME280;34336;48.270;16.716;2023-04-24T01:03:31;109325.25;;;18.16;62.55
48555;BME280;34336;48.270;16.716;2023-04-24T01:06:00;109325.25;;;18.16;62.97
48555;BME280;34336;48.270;16.716;2023-04-24T01:08:28;109325.25;;;18.16;62.91
48555;BME280;34336;48.270;16.716;2023-04-24T01:10:55;109325.25;;;18.16;63.40
48555;BME280;34336;48.270;16.716;2023-04-24T01:13:23;109325.25;;;18.16;63.30
48555;BME280;34336;48.270;16.716;2023-04-24T01:15:49;109325.25;;;18.16;63.45
48555;BME280;34336;48.270;16.716;2023-04-24T01:18:16;109325.25;;;18.16;63.47
48555;BME280;34336;48.270;16.716;2023-04-24T01:20:43;109325.25;;;18.16;64.06
48555;BME280;34336;48.270;16.716;2023-04-24T01:23:11;109325.25;;;18.16;63.61
48555;BME280;34336;48.270;16.716;2023-04-24T01:25:38;109325.25;;;18.16;63.29
48555;BME280;34336;48.270;16.716;2023-04-24T01:28:04;109325.25;;;18.16;63.87
48555;BME280;34336;48.270;16.716;2023-04-24T01:30:31;109325.25;;;18.16;63.50
48555;BME280;34336;48.270;16.716;2023-04-24T01:32:57;109325.25;;;18.16;64.26
48555;BME280;34336;48.270;16.716;2023-04-24T01:35:25;109325.25;;;18.16;64.26
48555;BME280;34336;48.270;16.716;2023-04-24T01:37:54;109325.25;;;18.16;64.31
48555;BME280;34336;48.270;16.716;2023-04-24T01:40:21;109325.25;;;18.16;64.30
48555;BME280;34336;48.270;16.716;2023-04-24T01:42:48;109325.25;;;18.16;64.45
48555;BME280;34336;48.270;16.716;2023-04-24T01:45:15;109325.25;;;18.16;64.04
48555;BME280;34336;48.270;16.716;2023-04-24T01:47:41;109325.25;;;18.16;64.25
48555;BME280;34336;48.270;16.716;2023-04-24T01:50:08;109325.25;;;18.16;63.76
48555;BME280;34336;48.270;16.716;2023-04-24T01:52:35;109325.25;;;18.16;63.53
48555;BME280;34336;48.270;16.716;2023-04-24T01:55:03;109325.25;;;18.16;64.06
48555;BME280;34336;48.270;16.716;2023-04-24T01:57:31;109325.25;;;18.16;63.89
48555;BME280;34336;48.270;16.716;2023-04-24T01:59:57;109325.25;;;18.16;64.06
48555;BME280;34336;48.270;16.716;2023-04-24T02:02:24;109325.25;;;18.16;64.98
48555;BME280;34336;48.270;16.716;2023-04-24T02:04:56;109325.25;;;18.16;64.99
48555;BME280;34336;48.270;16.716;2023-04-24T02:07:37;109325.25;;;18.16;65.26
48555;BME280;34336;48.270;16.716;2023-04-24T02:10:03;109325.25;;;18.16;65.37
48555;BME280;34336;48.270;16.716;2023-04-24T02:12:30;109325.25;;;18.16;65.72
48555;BME280;34336;48.270;16.716;2023-04-24T02:14:57;109325.25;;;18.16;65.78
48555;BME280;34336;48.270;16.716;2023-04-24T02:17:24;109325.25;;;18.16;65.55
48555;BME280;34336;48.270;16.716;2023-04-24T02:19:50;109325.25;;;18.16;66.09
48555;BME280;34336;48.270;16.716;2023-04-24T02:22:17;109325.25;;;18.16;66.09
48555;BME280;34336;48.270;16.716;2023-04-24T02:24:44;109325.25;;;18.16;66.81
48555;BME280;34336;48.270;16.716;2023-04-24T02:27:14;109325.25;;;18.16;66.81
48555;BME280;34336;48.270;16.716;2023-04-24T02:29:41;109325.25;;;18.16;67.51
48555;BME280;34336;48.270;16.716;2023-04-24T02:32:08;109325.25;;;18.16;67.84
48555;BME280;34336;48.270;16.716;2023-04-24T02:34:38;109325.25;;;18.16;68.29
48555;BME280;34336;48.270;16.716;2023-04-24T02:37:05;109325.25;;;18.16;68.50
48555;BME280;34336;48.270;16.716;2023-04-24T02:39:31;109325.25;;;18.16;68.45
48555;BME280;34336;48.270;16.716;2023-04-24T02:41:58;109325.25;;;18.16;68.89
48555;BME280;34336;48.270;16.716;2023-04-24T02:44:24;109325.25;;;18.16;69.30
48555;BME280;34336;48.270;16.716;2023-04-24T02:46:51;109325.25;;;18.16;69.54
48555;BME280;34336;48.270;16.716;2023-04-24T02:49:17;109325.25;;;18.16;70.20
48555;BME280;34336;48.270;16.716;2023-04-24T02:51:44;109325.25;;;18.16;70.37
48555;BME280;34336;48.270;16.716;2023-04-24T02:54:11;109325.25;;;18.16;70.85
48555;BME280;34336;48.270;16.716;2023-04-24T02:56:37;109325.25;;;18.16;71.44
48555;BME280;34336;48.270;16.716;2023-04-24T02:59:06;109325.25;;;18.16;71.51
48555;BME280;34336;48.270;16.716;2023-04-24T03:01:33;109325.25;;;18.16;71.85
48555;BME280;34336;48.270;16.716;2023-04-24T03:03:59;109325.25;;;18.16;71.94
48555;BME280;34336;48.270;16.716;2023-04-24T03:06:27;109325.25;;;18.16;72.06
48555;BME280;34336;48.270;16.716;2023-04-24T03:08:54;109325.25;;;18.16;71.80
48555;BME280;34336;48.270;16.716;2023-04-24T03:11:20;109325.25;;;18.16;71.35
48555;BME280;34336;48.270;16.716;2023-04-24T03:13:47;109325.25;;;18.16;71.43
48555;BME280;34336;48.270;16.716;2023-04-24T03:16:13;109325.25;;;18.16;70.92
48555;BME280;34336;48.270;16.716;2023-04-24T03:18:40;109325.25;;;18.16;70.83
48555;BME280;34336;48.270;16.716;2023-04-24T03:21:08;109325.25;;;18.16;70.90
48555;BME280;34336;48.270;16.716;2023-04-24T03:23:35;109325.25;;;18.16;70.98
48555;BME280;34336;48.270;16.716;2023-04-24T03:26:01;109325.25;;;18.16;71.36
48555;BME280;34336;48.270;16.716;2023-04-24T03:28:29;109325.25;;;18.16;71.69
48555;BME280;34336;48.270;16.716;2023-04-24T03:31:02;109325.25;;;18.16;71.91
48555;BME280;34336;48.270;16.716;2023-04-24T03:33:33;109325.25;;;18.16;72.54
48555;BME280;34336;48.270;16.716;2023-04-24T03:36:00;109325.25;;;18.16;72.81
48555;BME280;34336;48.270;16.716;2023-04-24T03:38:34;109325.25;;;18.16;72.80
48555;BME280;34336;48.270;16.716;2023-04-24T03:41:39;109325.25;;;18.16;72.85
48555;BME280;34336;48.270;16.716;2023-04-24T03:44:13;109325.25;;;18.16;73.01
48555;BME280;34336;48.270;16.716;2023-04-24T03:46:40;109325.25;;;18.16;73.66
48555;BME280;34336;48.270;16.716;2023-04-24T03:49:07;109325.25;;;18.16;74.13
48555;BME280;34336;48.270;16.716;2023-04-24T03:51:38;109325.25;;;18.16;74.54
48555;BME280;34336;48.270;16.716;2023-04-24T03:54:16;109325.25;;;18.16;74.88
48555;BME280;34336;48.270;16.716;2023-04-24T03:56:44;109325.25;;;18.16;75.65
48555;BME280;34336;48.270;16.716;2023-04-24T03:59:11;109325.25;;;18.16;76.22
48555;BME280;34336;48.270;16.716;2023-04-24T04:01:39;109325.25;;;18.16;77.27
48555;BME280;34336;48.270;16.716;2023-04-24T04:04:14;109325.25;;;18.16;78.23
48555;BME280;34336;48.270;16.716;2023-04-24T04:06:43;109325.25;;;18.16;79.37
48555;BME280;34336;48.270;16.716;2023-04-24T04:09:10;109325.25;;;18.16;79.76
48555;BME280;34336;48.270;16.716;2023-04-24T04:11:37;109325.25;;;18.16;80.15
48555;BME280;34336;48.270;16.716;2023-04-24T04:14:04;109325.25;;;18.16;80.03
48555;BME280;34336;48.270;16.716;2023-04-24T04:16:33;109325.25;;;18.16;79.62
48555;BME280;34336;48.270;16.716;2023-04-24T04:19:02;109325.25;;;18.16;79.46
48555;BME280;34336;48.270;16.716;2023-04-24T04:21:29;109325.25;;;18.16;79.01
48555;BME280;34336;48.270;16.716;2023-04-24T04:24:08;109325.25;;;18.16;78.41
48555;BME280;34336;48.270;16.716;2023-04-24T04:26:40;109325.25;;;18.16;77.82
48555;BME280;34336;48.270;16.716;2023-04-24T04:29:09;109325.25;;;18.16;77.54
48555;BME280;34336;48.270;16.716;2023-04-24T04:31:40;109325.25;;;18.16;76.81
48555;BME280;34336;48.270;16.716;2023-04-24T04:34:10;109325.25;;;18.16;75.29
48555;BME280;34336;48.270;16.716;2023-04-24T04:36:40;109325.25;;;18.16;68.78
48555;BME280;34336;48.270;16.716;2023-04-24T04:39:20;109325.25;;;18.16;62.53
48555;BME280;34336;48.270;16.716;2023-04-24T04:41:57;109325.25;;;18.16;59.54
48555;BME280;34336;48.270;16.716;2023-04-24T04:44:29;109325.25;;;18.16;59.41
48555;BME280;34336;48.270;16.716;2023-04-24T04:46:59;109325.25;;;18.16;57.48
48555;BME280;34336;48.270;16.716;2023-04-24T04:49:29;109325.25;;;18.16;58.12
48555;BME280;34336;48.270;16.716;2023-04-24T04:51:57;109325.25;;;18.16;58.73
48555;BME280;34336;48.270;16.716;2023-04-24T04:54:25;109325.25;;;18.16;56.79
48555;BME280;34336;48.270;16.716;2023-04-24T04:56:52;109325.25;;;18.16;56.00
48555;BME280;34336;48.270;16.716;2023-04-24T04:59:19;109325.25;;;18.16;55.77
48555;BME280;34336;48.270;16.716;2023-04-24T05:01:48;109325.25;;;18.16;53.63
48555;BME280;34336;48.270;16.716;2023-04-24T05:04:15;109325.25;;;18.16;54.27
48555;BME280;34336;48.270;16.716;2023-04-24T05:06:43;109325.25;;;18.16;55.56
48555;BME280;34336;48.270;16.716;2023-04-24T05:09:09;109325.25;;;18.16;56.77
48555;BME280;34336;48.270;16.716;2023-04-24T05:11:46;109325.25;;;18.16;56.72
48555;BME280;34336;48.270;16.716;2023-04-24T05:14:13;109325.25;;;18.16;56.37
48555;BME280;34336;48.270;16.716;2023-04-24T05:16:41;109325.25;;;18.16;55.79
48555;BME280;34336;48.270;16.716;2023-04-24T05:19:09;109325.25;;;18.16;54.76
48555;BME280;34336;48.270;16.716;2023-04-24T05:21:39;109325.25;;;18.16;52.72
48555;BME280;34336;48.270;16.716;2023-04-24T05:24:07;109325.25;;;18.16;55.86
48555;BME280;34336;48.270;16.716;2023-04-24T05:26:54;109325.25;;;18.16;57.99
48555;BME280;34336;48.270;16.716;2023-04-24T05:29:26;109325.25;;;18.16;56.26
48555;BME280;34336;48.270;16.716;2023-04-24T05:31:53;109325.25;;;18.16;54.58
48555;BME280;34336;48.270;16.716;2023-04-24T05:34:20;109325.25;;;18.16;53.45
48555;BME280;34336;48.270;16.716;2023-04-24T05:36:51;109325.25;;;18.16;52.49
48555;BME280;34336;48.270;16.716;2023-04-24T05:39:18;109325.25;;;18.16;48.78
48555;BME280;34336;48.270;16.716;2023-04-24T05:41:46;109325.25;;;18.16;46.42
48555;BME280;34336;48.270;16.716;2023-04-24T05:44:12;109325.25;;;18.16;42.90
48555;BME280;34336;48.270;16.716;2023-04-24T05:46:39;109325.25;;;18.16;41.93
48555;BME280;34336;48.270;16.716;2023-04-24T05:49:05;109325.25;;;18.16;39.66
48555;BME280;34336;48.270;16.716;2023-04-24T05:51:33;109325.25;;;18.16;43.47
48555;BME280;34336;48.270;16.716;2023-04-24T05:54:01;109325.25;;;18.16;41.07
48555;BME280;34336;48.270;16.716;2023-04-24T05:56:30;109325.25;;;18.16;39.56
48555;BME280;34336;48.270;16.716;2023-04-24T05:58:58;109325.25;;;18.16;38.15
48555;BME280;34336;48.270;16.716;2023-04-24T06:01:25;109325.25;;;18.16;38.47
48555;BME280;34336;48.270;16.716;2023-04-24T06:04:03;109325.25;;;18.16;37.81
48555;BME280;34336;48.270;16.716;2023-04-24T06:06:30;109325.25;;;18.16;39.62
48555;BME280;34336;48.270;16.716;2023-04-24T06:08:57;109325.25;;;18.16;37.79
48555;BME280;34336;48.270;16.716;2023-04-24T06:11:25;109325.25;;;18.16;37.04
48555;BME280;34336;48.270;16.716;2023-04-24T06:13:52;109325.25;;;18.16;37.38
48555;BME280;34336;48.270;16.716;2023-04-24T06:16:42;109325.25;;;18.16;37.67
48555;BME280;34336;48.270;16.716;2023-04-24T06:19:18;109325.25;;;18.16;36.94
48555;BME280;34336;48.270;16.716;2023-04-24T06:21:46;109325.25;;;18.16;39.96
48555;BME280;34336;48.270;16.716;2023-04-24T06:24:13;109325.25;;;18.16;40.77
48555;BME280;34336;48.270;16.716;2023-04-24T06:26:40;109325.25;;;18.16;41.60
48555;BME280;34336;48.270;16.716;2023-04-24T06:29:07;109325.25;;;18.16;41.59
48555;BME280;34336;48.270;16.716;2023-04-24T06:31:35;109325.25;;;18.16;44.78
48555;BME280;34336;48.270;16.716;2023-04-24T06:34:03;109325.25;;;18.16;46.20
48555;BME280;34336;48.270;16.716;2023-04-24T06:36:30;109325.25;;;18.16;47.66
48555;BME280;34336;48.270;16.716;2023-04-24T06:38:57;109325.25;;;18.16;48.84
48555;BME280;34336;48.270;16.716;2023-04-24T06:41:24;109325.25;;;18.16;51.56
48555;BME280;34336;48.270;16.716;2023-04-24T06:43:50;109325.25;;;18.16;52.41
48555;BME280;34336;48.270;16.716;2023-04-24T06:46:17;109325.25;;;18.16;52.92
48555;BME280;34336;48.270;16.716;2023-04-24T06:48:43;109325.25;;;18.16;53.35
48555;BME280;34336;48.270;16.716;2023-04-24T06:51:10;109325.25;;;18.16;54.13
48555;BME280;34336;48.270;16.716;2023-04-24T06:53:36;109325.25;;;18.16;52.52
48555;BME280;34336;48.270;16.716;2023-04-24T06:56:03;109325.25;;;18.16;52.22
48555;BME280;34336;48.270;16.716;2023-04-24T06:58:30;109325.25;;;18.16;52.23
48555;BME280;34336;48.270;16.716;2023-04-24T07:00:57;109325.25;;;18.16;52.60
48555;BME280;34336;48.270;16.716;2023-04-24T07:03:23;109325.25;;;18.16;51.58
48555;BME280;34336;48.270;16.716;2023-04-24T07:05:50;109325.25;;;18.16;52.80
48555;BME280;34336;48.270;16.716;2023-04-24T07:08:17;109325.25;;;18.16;52.45
48555;BME280;34336;48.270;16.716;2023-04-24T07:10:44;109325.25;;;18.16;51.49
48555;BME280;34336;48.270;16.716;2023-04-24T07:13:11;109325.25;;;18.16;51.57
48555;BME280;34336;48.270;16.716;2023-04-24T07:15:38;109325.25;;;18.16;51.11
48555;BME280;34336;48.270;16.716;2023-04-24T07:18:05;109325.25;;;18.16;50.58
48555;BME280;34336;48.270;16.716;2023-04-24T07:20:31;109325.25;;;18.16;51.44
48555;BME280;34336;48.270;16.716;2023-04-24T07:22:59;109325.25;;;18.16;52.50
48555;BME280;34336;48.270;16.716;2023-04-24T07:25:26;109325.25;;;18.16;51.87
48555;BME280;34336;48.270;16.716;2023-04-24T07:27:52;109325.25;;;18.16;51.10
48555;BME280;34336;48.270;16.716;2023-04-24T07:30:19;109325.25;;;18.16;49.96
48555;BME280;34336;48.270;16.716;2023-04-24T07:32:46;109325.25;;;18.16;50.64
48555;BME280;34336;48.270;16.716;2023-04-24T07:35:12;109325.25;;;18.16;50.72
48555;BME280;34336;48.270;16.716;2023-04-24T07:37:39;109325.25;;;18.16;49.39
48555;BME280;34336;48.270;16.716;2023-04-24T07:40:06;109325.25;;;18.16;49.34
48555;BME280;34336;48.270;16.716;2023-04-24T07:42:32;109325.25;;;18.16;50.18
48555;BME280;34336;48.270;16.716;2023-04-24T07:45:01;109325.25;;;18.16;49.12
48555;BME280;34336;48.270;16.716;2023-04-24T07:47:28;109325.25;;;18.16;49.29
48555;BME280;34336;48.270;16.716;2023-04-24T07:49:55;109325.25;;;18.16;49.36
48555;BME280;34336;48.270;16.716;2023-04-24T07:52:21;109325.25;;;18.16;49.75
48555;BME280;34336;48.270;16.716;2023-04-24T07:54:48;109325.25;;;18.16;49.09
48555;BME280;34336;48.270;16.716;2023-04-24T07:57:16;109325.25;;;18.16;48.75
48555;BME280;34336;48.270;16.716;2023-04-24T07:59:42;109325.25;;;18.16;50.64
48555;BME280;34336;48.270;16.716;2023-04-24T08:02:09;109325.25;;;18.16;51.80
48555;BME280;34336;48.270;16.716;2023-04-24T08:04:36;109325.25;;;18.16;52.36
48555;BME280;34336;48.270;16.716;2023-04-24T08:07:03;109325.25;;;18.16;52.61
48555;BME280;34336;48.270;16.716;2023-04-24T08:09:29;109325.25;;;18.16;52.68
48555;BME280;34336;48.270;16.716;2023-04-24T08:11:56;109325.25;;;18.16;52.16
48555;BME280;34336;48.270;16.716;2023-04-24T08:14:22;109325.25;;;18.16;52.44
48555;BME280;34336;48.270;16.716;2023-04-24T08:16:49;109325.25;;;18.16;52.00
48555;BME280;34336;48.270;16.716;2023-04-24T08:19:16;109325.25;;;18.16;52.16
48555;BME280;34336;48.270;16.716;2023-04-24T08:21:42;109325.25;;;18.16;51.69
48555;BME280;34336;48.270;16.716;2023-04-24T08:24:09;109325.25;;;18.16;52.40
48555;BME280;34336;48.270;16.716;2023-04-24T08:26:35;109325.25;;;18.16;52.69
48555;BME280;34336;48.270;16.716;2023-04-24T08:29:02;109325.25;;;18.16;53.38
48555;BME280;34336;48.270;16.716;2023-04-24T08:31:28;109325.25;;;18.16;53.95
48555;BME280;34336;48.270;16.716;2023-04-24T08:33:55;109325.25;;;18.16;54.53
48555;BME280;34336;48.270;16.716;2023-04-24T08:36:22;109325.25;;;18.16;55.80
48555;BME280;34336;48.270;16.716;2023-04-24T08:38:58;109325.25;;;18.16;57.12
48555;BME280;34336;48.270;16.716;2023-04-24T08:41:24;109325.25;;;18.16;56.72
48555;BME280;34336;48.270;16.716;2023-04-24T08:43:53;109325.25;;;18.16;58.27
48555;BME280;34336;48.270;16.716;2023-04-24T08:46:19;109325.25;;;18.16;58.56
48555;BME280;34336;48.270;16.716;2023-04-24T08:48:46;109325.25;;;18.16;58.20
48555;BME280;34336;48.270;16.716;2023-04-24T08:51:13;109325.25;;;18.16;58.17
48555;BME280;34336;48.270;16.716;2023-04-24T08:53:39;109325.25;;;18.16;58.54
48555;BME280;34336;48.270;16.716;2023-04-24T08:56:06;109325.25;;;18.16;58.28
48555;BME280;34336;48.270;16.716;2023-04-24T08:58:33;109325.25;;;18.16;57.88
48555;BME280;34336;48.270;16.716;2023-04-24T09:00:59;109325.25;;;18.16;57.87
48555;BME280;34336;48.270;16.716;2023-04-24T09:03:27;109325.25;;;18.16;58.46
48555;BME280;34336;48.270;16.716;2023-04-24T09:05:55;109325.25;;;18.16;58.49
48555;BME280;34336;48.270;16.716;2023-04-24T09:08:22;109325.25;;;18.16;58.72
48555;BME280;34336;48.270;16.716;2023-04-24T09:10:50;109325.25;;;18.16;59.24
48555;BME280;34336;48.270;16.716;2023-04-24T09:13:17;109325.25;;;18.16;58.83
48555;BME280;34336;48.270;16.716;2023-04-24T09:15:44;109325.25;;;18.16;59.02
48555;BME280;34336;48.270;16.716;2023-04-24T09:18:11;109325.25;;;18.16;58.98
48555;BME280;34336;48.270;16.716;2023-04-24T09:21:00;109325.25;;;18.16;58.75
48555;BME280;34336;48.270;16.716;2023-04-24T09:23:28;109325.25;;;18.16;58.39
48555;BME280;34336;48.270;16.716;2023-04-24T09:25:55;109325.25;;;18.16;58.65
48555;BME280;34336;48.270;16.716;2023-04-24T09:28:26;109325.25;;;18.16;59.23
48555;BME280;34336;48.270;16.716;2023-04-24T09:31:03;109325.25;;;18.16;59.28
48555;BME280;34336;48.270;16.716;2023-04-24T09:33:30;109325.25;;;18.16;59.54
48555;BME280;34336;48.270;16.716;2023-04-24T09:35:56;109325.25;;;18.16;59.22
48555;BME280;34336;48.270;16.716;2023-04-24T09:38:33;109325.25;;;18.16;59.84
48555;BME280;34336;48.270;16.716;2023-04-24T09:41:01;109325.25;;;18.16;59.65
48555;BME280;34336;48.270;16.716;2023-04-24T09:43:29;109325.25;;;18.16;60.33
48555;BME280;34336;48.270;16.716;2023-04-24T09:45:57;109325.25;;;18.16;61.21
48555;BME280;34336;48.270;16.716;2023-04-24T09:48:31;109325.25;;;18.16;62.26
48555;BME280;34336;48.270;16.716;2023-04-24T09:50:58;109325.25;;;18.16;62.75
48555;BME280;34336;48.270;16.716;2023-04-24T09:53:25;109325.25;;;18.16;64.22
48555;BME280;34336;48.270;16.716;2023-04-24T09:55:52;109325.25;;;18.16;65.51
48555;BME280;34336;48.270;16.716;2023-04-24T09:58:25;109325.25;;;18.16;67.60
48555;BME280;34336;48.270;16.716;2023-04-24T10:00:55;109325.25;;;18.16;70.29
48555;BME280;34336;48.270;16.716;2023-04-24T10:03:26;109325.25;;;18.16;71.19
48555;BME280;34336;48.270;16.716;2023-04-24T10:05:53;109325.25;;;18.16;72.35
48555;BME280;34336;48.270;16.716;2023-04-24T10:08:20;109325.25;;;18.16;72.25
48555;BME280;34336;48.270;16.716;2023-04-24T10:10:47;109325.25;;;18.16;71.83
48555;BME280;34336;48.270;16.716;2023-04-24T10:13:14;109325.25;;;18.16;71.38
48555;BME280;34336;48.270;16.716;2023-04-24T10:15:41;109325.25;;;18.16;71.28
48555;BME280;34336;48.270;16.716;2023-04-24T10:18:08;109325.25;;;18.16;70.82
48555;BME280;34336;48.270;16.716;2023-04-24T10:20:36;109325.25;;;18.16;71.17
48555;BME280;34336;48.270;16.716;2023-04-24T10:23:02;109325.25;;;18.16;71.54
48555;BME280;34336;48.270;16.716;2023-04-24T10:25:31;109325.25;;;18.16;71.67
48555;BME280;34336;48.270;16.716;2023-04-24T10:27:58;109325.25;;;18.16;71.69
48555;BME280;34336;48.270;16.716;2023-04-24T10:30:26;109325.25;;;18.16;71.05
48555;BME280;34336;48.270;16.716;2023-04-24T10:32:53;109325.25;;;18.16;71.50
48555;BME280;34336;48.270;16.716;2023-04-24T10:35:20;109325.25;;;18.16;71.35
48555;BME280;34336;48.270;16.716;2023-04-24T10:37:49;109325.25;;;18.16;72.03
48555;BME280;34336;48.270;16.716;2023-04-24T10:40:17;109325.25;;;18.16;71.02
48555;BME280;34336;48.270;16.716;2023-04-24T10:42:48;109325.25;;;18.16;71.17
48555;BME280;34336;48.270;16.716;2023-04-24T10:45:18;109325.25;;;18.16;71.98
48555;BME280;34336;48.270;16.716;2023-04-24T10:50:20;109325.25;;;18.16;71.63
48555;BME280;34336;48.270;16.716;2023-04-24T10:52:47;109325.25;;;18.16;73.33
48555;BME280;34336;48.270;16.716;2023-04-24T10:55:14;109325.25;;;18.16;73.94
48555;BME280;34336;48.270;16.716;2023-04-24T10:58:00;109325.25;;;18.16;73.53
48555;BME280;34336;48.270;16.716;2023-04-24T11:00:27;109325.25;;;18.16;72.96
48555;BME280;34336;48.270;16.716;2023-04-24T11:02:54;109325.25;;;18.16;73.12
48555;BME280;34336;48.270;16.716;2023-04-24T11:05:21;109325.25;;;18.16;73.61
48555;BME280;34336;48.270;16.716;2023-04-24T11:10:58;109325.25;;;18.16;73.91
48555;BME280;34336;48.270;16.716;2023-04-24T11:13:26;109325.25;;;18.16;74.93
48555;BME280;34336;48.270;16.716;2023-04-24T11:18:38;109325.25;;;18.16;78.03
48555;BME280;34336;48.270;16.716;2023-04-24T11:21:09;109325.25;;;18.16;79.27
48555;BME280;34336;48.270;16.716;2023-04-24T11:23:36;109325.25;;;18.16;79.94
48555;BME280;34336;48.270;16.716;2023-04-24T11:26:10;109325.25;;;18.16;80.51
48555;BME280;34336;48.270;16.716;2023-04-24T11:28:36;109325.25;;;18.16;82.23
48555;BME280;34336;48.270;16.716;2023-04-24T11:33:48;109325.25;;;18.16;83.91
48555;BME280;34336;48.270;16.716;2023-04-24T11:36:15;109325.25;;;18.16;83.28
48555;BME280;34336;48.270;16.716;2023-04-24T11:38:41;109325.25;;;18.16;83.12
48555;BME280;34336;48.270;16.716;2023-04-24T11:41:08;109325.25;;;18.16;82.20
48555;BME280;34336;48.270;16.716;2023-04-24T11:43:35;109325.25;;;18.16;82.63
48555;BME280;34336;48.270;16.716;2023-04-24T11:46:03;109325.25;;;18.16;83.22
48555;BME280;34336;48.270;16.716;2023-04-24T11:48:34;109325.25;;;18.16;83.02
48555;BME280;34336;48.270;16.716;2023-04-24T11:51:02;109325.25;;;18.16;82.36
48555;BME280;34336;48.270;16.716;2023-04-24T11:53:30;109325.25;;;18.16;81.73
48555;BME280;34336;48.270;16.716;2023-04-24T11:55:56;109325.25;;;18.16;81.33
48555;BME280;34336;48.270;16.716;2023-04-24T11:58:23;109325.25;;;18.16;80.46
48555;BME280;34336;48.270;16.716;2023-04-24T12:00:55;109325.25;;;18.16;80.34
48555;BME280;34336;48.270;16.716;2023-04-24T12:03:22;109325.25;;;18.16;79.90
48555;BME280;34336;48.270;16.716;2023-04-24T12:05:49;109325.25;;;18.16;81.11
48555;BME280;34336;48.270;16.716;2023-04-24T12:08:28;109325.25;;;18.16;80.14
48555;BME280;34336;48.270;16.716;2023-04-24T12:10:55;109325.25;;;18.16;80.47
48555;BME280;34336;48.270;16.716;2023-04-24T12:13:21;109325.25;;;18.16;81.58
48555;BME280;34336;48.270;16.716;2023-04-24T12:15:49;109325.25;;;18.16;81.85
48555;BME280;34336;48.270;16.716;2023-04-24T12:18:17;109325.25;;;18.16;82.21
48555;BME280;34336;48.270;16.716;2023-04-24T12:20:43;109325.25;;;18.16;83.90
48555;BME280;34336;48.270;16.716;2023-04-24T12:23:10;109325.25;;;18.16;85.61
48555;BME280;34336;48.270;16.716;2023-04-24T12:25:38;109325.25;;;18.16;85.27
48555;BME280;34336;48.270;16.716;2023-04-24T12:30:33;109325.25;;;18.16;86.31
48555;BME280;34336;48.270;16.716;2023-04-24T12:33:00;109325.25;;;18.16;85.80
48555;BME280;34336;48.270;16.716;2023-04-24T12:35:28;109325.25;;;18.16;85.80
48555;BME280;34336;48.270;16.716;2023-04-24T12:37:55;109325.25;;;18.16;84.48
48555;BME280;34336;48.270;16.716;2023-04-24T12:40:21;109325.25;;;18.16;84.43
48555;BME280;34336;48.270;16.716;2023-04-24T12:42:49;109325.25;;;18.16;85.28
48555;BME280;34336;48.270;16.716;2023-04-24T12:45:16;109325.25;;;18.16;84.73
48555;BME280;34336;48.270;16.716;2023-04-24T12:47:43;109325.25;;;18.16;84.95
48555;BME280;34336;48.270;16.716;2023-04-24T12:50:11;109325.25;;;18.16;85.17
48555;BME280;34336;48.270;16.716;2023-04-24T12:52:38;109325.25;;;18.16;84.77
48555;BME280;34336;48.270;16.716;2023-04-24T12:55:05;109325.25;;;18.16;84.35
48555;BME280;34336;48.270;16.716;2023-04-24T12:57:35;109325.25;;;18.16;84.67
48555;BME280;34336;48.270;16.716;2023-04-24T13:00:02;109325.25;;;18.16;84.79